sensor_id;sensor_type;location;lat;lon;timestamp;P1;durP1;ratioP1;P2;durP2;ratioP2
36321;SDS011;23564;48.290;11.460;2022-08-11T00:01:44;8.30;;;2.15;;
36321;SDS011;23564;48.290;11.460;2022-08-11T00:04:12;5.30;;;2.47;;
36321;SDS011;23564;48.290;11.460;2022-08-11T00:06:40;4.63;;;1.90;;
36321;SDS011;23564;48.290;11.460;2022-08-11T00:09:07;3.22;;;2.10;;
36321;SDS011;23564;48.290;11.460;2022-08-11T00:11:48;6.03;;;2.40;;
36321;SDS011;23564;48.290;11.460;2022-08-11T00:14:20;3.22;;;2.13;;
36321;SDS011;23564;48.290;11.460;2022-08-11T00:19:25;5.40;;;2.13;;
36321;SDS011;23564;48.290;11.460;2022-08-11T00:21:56;3.97;;;2.30;;
36321;SDS011;23564;48.290;11.460;2022-08-11T00:24:23;5.25;;;2.38;;
36321;SDS011;23564;48.290;11.460;2022-08-11T00:26:56;7.70;;;2.30;;
36321;SDS011;23564;48.290;11.460;2022-08-11T00:29:22;3.35;;;1.92;;
36321;SDS011;23564;48.290;11.460;2022-08-11T00:31:48;5.80;;;2.42;;
36321;SDS011;23564;48.290;11.460;2022-08-11T00:34:26;5.70;;;2.10;;
36321;SDS011;23564;48.290;11.460;2022-08-11T00:36:59;5.60;;;1.90;;
36321;SDS011;23564;48.290;11.460;2022-08-11T00:39:27;3.40;;;2.15;;
36321;SDS011;23564;48.290;11.460;2022-08-11T00:44:41;3.60;;;1.85;;
36321;SDS011;23564;48.290;11.460;2022-08-11T01:35:53;7.53;;;2.53;;
36321;SDS011;23564;48.290;11.460;2022-08-11T01:42:03;3.83;;;2.30;;
36321;SDS011;23564;48.290;11.460;2022-08-11T01:50:26;8.55;;;2.50;;
36321;SDS011;23564;48.290;11.460;2022-08-11T01:53:15;5.40;;;2.47;;
36321;SDS011;23564;48.290;11.460;2022-08-11T02:10:03;7.03;;;2.30;;
36321;SDS011;23564;48.290;11.460;2022-08-11T02:13:00;4.03;;;2.55;;
36321;SDS011;23564;48.290;11.460;2022-08-11T02:15:44;6.00;;;2.15;;
36321;SDS011;23564;48.290;11.460;2022-08-11T02:18:23;7.05;;;2.65;;
36321;SDS011;23564;48.290;11.460;2022-08-11T02:24:10;3.17;;;2.25;;
36321;SDS011;23564;48.290;11.460;2022-08-11T02:26:44;4.38;;;2.38;;
36321;SDS011;23564;48.290;11.460;2022-08-11T02:29:34;3.80;;;2.05;;
36321;SDS011;23564;48.290;11.460;2022-08-11T02:32:18;3.70;;;2.38;;
36321;SDS011;23564;48.290;11.460;2022-08-11T02:35:18;5.22;;;2.28;;
36321;SDS011;23564;48.290;11.460;2022-08-11T02:40:52;4.35;;;2.60;;
36321;SDS011;23564;48.290;11.460;2022-08-11T02:46:42;4.30;;;2.55;;
36321;SDS011;23564;48.290;11.460;2022-08-11T02:55:13;4.90;;;2.42;;
36321;SDS011;23564;48.290;11.460;2022-08-11T03:01:16;4.97;;;2.53;;
36321;SDS011;23564;48.290;11.460;2022-08-11T03:06:28;3.67;;;2.45;;
36321;SDS011;23564;48.290;11.460;2022-08-11T03:09:20;3.60;;;2.53;;
36321;SDS011;23564;48.290;11.460;2022-08-11T03:14:57;6.13;;;3.25;;
36321;SDS011;23564;48.290;11.460;2022-08-11T03:18:18;6.75;;;3.72;;
36321;SDS011;23564;48.290;11.460;2022-08-11T03:21:04;8.25;;;2.90;;
36321;SDS011;23564;48.290;11.460;2022-08-11T03:24:01;7.28;;;2.70;;
36321;SDS011;23564;48.290;11.460;2022-08-11T03:26:33;5.53;;;2.58;;
36321;SDS011;23564;48.290;11.460;2022-08-11T03:29:11;6.75;;;2.92;;
36321;SDS011;23564;48.290;11.460;2022-08-11T03:34:38;6.22;;;3.33;;
36321;SDS011;23564;48.290;11.460;2022-08-11T03:48:12;4.85;;;2.60;;
36321;SDS011;23564;48.290;11.460;2022-08-11T04:11:36;5.32;;;3.33;;
36321;SDS011;23564;48.290;11.460;2022-08-11T04:14:41;8.75;;;3.20;;
36321;SDS011;23564;48.290;11.460;2022-08-11T04:21:01;5.65;;;3.38;;
36321;SDS011;23564;48.290;11.460;2022-08-11T04:24:11;4.47;;;3.45;;
36321;SDS011;23564;48.290;11.460;2022-08-11T04:29:34;4.93;;;3.25;;
36321;SDS011;23564;48.290;11.460;2022-08-11T04:32:20;8.02;;;3.58;;
36321;SDS011;23564;48.290;11.460;2022-08-11T04:37:48;8.18;;;3.45;;
36321;SDS011;23564;48.290;11.460;2022-08-11T04:40:54;4.68;;;3.22;;
36321;SDS011;23564;48.290;11.460;2022-08-11T04:46:56;4.75;;;3.00;;
36321;SDS011;23564;48.290;11.460;2022-08-11T04:56:30;10.50;;;3.55;;
36321;SDS011;23564;48.290;11.460;2022-08-11T05:05:34;8.27;;;3.55;;
36321;SDS011;23564;48.290;11.460;2022-08-11T05:13:33;7.28;;;3.40;;
36321;SDS011;23564;48.290;11.460;2022-08-11T05:16:28;7.10;;;3.10;;
36321;SDS011;23564;48.290;11.460;2022-08-11T05:19:25;6.90;;;3.05;;
36321;SDS011;23564;48.290;11.460;2022-08-11T05:22:10;5.20;;;3.33;;
36321;SDS011;23564;48.290;11.460;2022-08-11T05:25:05;3.92;;;3.17;;
36321;SDS011;23564;48.290;11.460;2022-08-11T05:28:02;5.53;;;3.15;;
36321;SDS011;23564;48.290;11.460;2022-08-11T05:30:59;4.95;;;3.00;;
36321;SDS011;23564;48.290;11.460;2022-08-11T05:33:48;6.38;;;2.92;;
36321;SDS011;23564;48.290;11.460;2022-08-11T05:36:39;6.15;;;3.25;;
36321;SDS011;23564;48.290;11.460;2022-08-11T05:39:28;4.35;;;2.97;;
36321;SDS011;23564;48.290;11.460;2022-08-11T05:42:16;6.60;;;3.30;;
36321;SDS011;23564;48.290;11.460;2022-08-11T05:45:08;5.57;;;2.88;;
36321;SDS011;23564;48.290;11.460;2022-08-11T05:47:56;5.78;;;3.13;;
36321;SDS011;23564;48.290;11.460;2022-08-11T05:50:43;3.65;;;2.65;;
36321;SDS011;23564;48.290;11.460;2022-08-11T05:53:46;7.45;;;2.90;;
36321;SDS011;23564;48.290;11.460;2022-08-11T05:56:43;3.47;;;2.60;;
36321;SDS011;23564;48.290;11.460;2022-08-11T05:59:13;10.27;;;2.92;;
36321;SDS011;23564;48.290;11.460;2022-08-11T06:01:42;5.13;;;3.17;;
36321;SDS011;23564;48.290;11.460;2022-08-11T06:04:11;7.32;;;2.95;;
36321;SDS011;23564;48.290;11.460;2022-08-11T06:06:55;3.38;;;2.60;;
36321;SDS011;23564;48.290;11.460;2022-08-11T06:09:32;6.53;;;2.75;;
36321;SDS011;23564;48.290;11.460;2022-08-11T06:14:28;4.63;;;2.83;;
36321;SDS011;23564;48.290;11.460;2022-08-11T06:16:56;5.00;;;2.42;;
36321;SDS011;23564;48.290;11.460;2022-08-11T06:19:29;5.18;;;2.88;;
36321;SDS011;23564;48.290;11.460;2022-08-11T06:21:57;4.57;;;2.70;;
36321;SDS011;23564;48.290;11.460;2022-08-11T06:24:25;3.97;;;2.75;;
36321;SDS011;23564;48.290;11.460;2022-08-11T06:26:53;7.13;;;3.15;;
36321;SDS011;23564;48.290;11.460;2022-08-11T06:29:20;6.50;;;2.78;;
36321;SDS011;23564;48.290;11.460;2022-08-11T06:31:52;4.80;;;2.72;;
36321;SDS011;23564;48.290;11.460;2022-08-11T06:34:26;7.47;;;2.40;;
36321;SDS011;23564;48.290;11.460;2022-08-11T06:39:55;4.85;;;3.03;;
36321;SDS011;23564;48.290;11.460;2022-08-11T06:45:52;3.65;;;2.75;;
36321;SDS011;23564;48.290;11.460;2022-08-11T06:48:27;4.82;;;2.63;;
36321;SDS011;23564;48.290;11.460;2022-08-11T06:50:58;6.88;;;2.60;;
36321;SDS011;23564;48.290;11.460;2022-08-11T06:53:59;4.15;;;2.40;;
36321;SDS011;23564;48.290;11.460;2022-08-11T06:56:28;3.28;;;2.45;;
36321;SDS011;23564;48.290;11.460;2022-08-11T06:59:15;4.25;;;2.78;;
36321;SDS011;23564;48.290;11.460;2022-08-11T07:07:34;5.60;;;3.05;;
36321;SDS011;23564;48.290;11.460;2022-08-11T07:10:49;4.50;;;2.45;;
36321;SDS011;23564;48.290;11.460;2022-08-11T07:13:41;8.55;;;3.10;;
36321;SDS011;23564;48.290;11.460;2022-08-11T07:16:28;7.28;;;2.55;;
36321;SDS011;23564;48.290;11.460;2022-08-11T07:18:59;4.28;;;2.65;;
36321;SDS011;23564;48.290;11.460;2022-08-11T07:21:46;10.07;;;2.78;;
36321;SDS011;23564;48.290;11.460;2022-08-11T07:24:33;6.65;;;2.90;;
36321;SDS011;23564;48.290;11.460;2022-08-11T07:27:29;6.50;;;3.22;;
36321;SDS011;23564;48.290;11.460;2022-08-11T07:30:18;5.60;;;2.60;;
36321;SDS011;23564;48.290;11.460;2022-08-11T07:32:51;8.18;;;2.83;;
36321;SDS011;23564;48.290;11.460;2022-08-11T07:35:25;8.63;;;2.42;;
36321;SDS011;23564;48.290;11.460;2022-08-11T07:38:15;6.82;;;2.47;;
36321;SDS011;23564;48.290;11.460;2022-08-11T07:40:45;6.82;;;2.70;;
36321;SDS011;23564;48.290;11.460;2022-08-11T07:43:11;5.70;;;2.75;;
36321;SDS011;23564;48.290;11.460;2022-08-11T07:45:44;7.43;;;3.08;;
36321;SDS011;23564;48.290;11.460;2022-08-11T07:48:28;5.85;;;2.72;;
36321;SDS011;23564;48.290;11.460;2022-08-11T07:51:17;5.53;;;2.42;;
36321;SDS011;23564;48.290;11.460;2022-08-11T07:54:06;4.05;;;2.08;;
36321;SDS011;23564;48.290;11.460;2022-08-11T07:56:34;7.60;;;2.50;;
36321;SDS011;23564;48.290;11.460;2022-08-11T07:59:02;6.90;;;2.70;;
36321;SDS011;23564;48.290;11.460;2022-08-11T08:01:47;8.52;;;2.42;;
36321;SDS011;23564;48.290;11.460;2022-08-11T08:04:32;5.40;;;2.35;;
36321;SDS011;23564;48.290;11.460;2022-08-11T08:07:18;3.78;;;2.22;;
36321;SDS011;23564;48.290;11.460;2022-08-11T08:10:05;5.10;;;2.60;;
36321;SDS011;23564;48.290;11.460;2022-08-11T08:12:51;14.50;;;2.92;;
36321;SDS011;23564;48.290;11.460;2022-08-11T08:15:37;3.72;;;2.40;;
36321;SDS011;23564;48.290;11.460;2022-08-11T08:18:23;11.43;;;2.85;;
36321;SDS011;23564;48.290;11.460;2022-08-11T08:20:50;8.38;;;2.67;;
36321;SDS011;23564;48.290;11.460;2022-08-11T08:23:17;3.78;;;2.30;;
36321;SDS011;23564;48.290;11.460;2022-08-11T08:25:57;5.10;;;2.40;;
36321;SDS011;23564;48.290;11.460;2022-08-11T08:28:25;4.97;;;2.63;;
36321;SDS011;23564;48.290;11.460;2022-08-11T08:30:52;5.93;;;2.35;;
36321;SDS011;23564;48.290;11.460;2022-08-11T08:33:23;7.57;;;2.90;;
36321;SDS011;23564;48.290;11.460;2022-08-11T08:35:53;5.23;;;1.80;;
36321;SDS011;23564;48.290;11.460;2022-08-11T08:38:39;5.68;;;2.05;;
36321;SDS011;23564;48.290;11.460;2022-08-11T08:41:05;7.07;;;2.20;;
36321;SDS011;23564;48.290;11.460;2022-08-11T08:43:32;9.77;;;2.38;;
36321;SDS011;23564;48.290;11.460;2022-08-11T08:46:00;5.22;;;1.98;;
36321;SDS011;23564;48.290;11.460;2022-08-11T08:48:27;3.45;;;2.20;;
36321;SDS011;23564;48.290;11.460;2022-08-11T08:51:01;8.25;;;2.38;;
36321;SDS011;23564;48.290;11.460;2022-08-11T08:53:51;6.38;;;2.35;;
36321;SDS011;23564;48.290;11.460;2022-08-11T08:56:18;3.78;;;2.08;;
36321;SDS011;23564;48.290;11.460;2022-08-11T08:58:49;5.47;;;2.30;;
36321;SDS011;23564;48.290;11.460;2022-08-11T09:01:15;6.13;;;2.53;;
36321;SDS011;23564;48.290;11.460;2022-08-11T09:03:42;4.10;;;2.08;;
36321;SDS011;23564;48.290;11.460;2022-08-11T09:06:08;5.32;;;2.03;;
36321;SDS011;23564;48.290;11.460;2022-08-11T09:08:35;3.90;;;2.20;;
36321;SDS011;23564;48.290;11.460;2022-08-11T09:11:02;5.88;;;2.53;;
36321;SDS011;23564;48.290;11.460;2022-08-11T09:13:47;4.47;;;2.15;;
36321;SDS011;23564;48.290;11.460;2022-08-11T09:16:14;5.07;;;1.98;;
36321;SDS011;23564;48.290;11.460;2022-08-11T09:18:40;3.33;;;2.03;;
36321;SDS011;23564;48.290;11.460;2022-08-11T09:21:11;6.88;;;2.22;;
36321;SDS011;23564;48.290;11.460;2022-08-11T09:23:40;6.72;;;2.20;;
36321;SDS011;23564;48.290;11.460;2022-08-11T09:26:26;5.63;;;2.35;;
36321;SDS011;23564;48.290;11.460;2022-08-11T09:29:11;4.80;;;2.30;;
36321;SDS011;23564;48.290;11.460;2022-08-11T09:31:38;2.88;;;2.20;;
36321;SDS011;23564;48.290;11.460;2022-08-11T09:34:04;4.15;;;2.13;;
36321;SDS011;23564;48.290;11.460;2022-08-11T09:36:30;3.35;;;1.90;;
36321;SDS011;23564;48.290;11.460;2022-08-11T09:39:16;3.05;;;2.22;;
36321;SDS011;23564;48.290;11.460;2022-08-11T09:42:01;7.15;;;2.50;;
36321;SDS011;23564;48.290;11.460;2022-08-11T09:44:32;3.33;;;2.03;;
36321;SDS011;23564;48.290;11.460;2022-08-11T09:47:12;4.05;;;1.85;;
36321;SDS011;23564;48.290;11.460;2022-08-11T09:49:57;6.15;;;2.22;;
36321;SDS011;23564;48.290;11.460;2022-08-11T09:52:24;2.90;;;1.92;;
36321;SDS011;23564;48.290;11.460;2022-08-11T09:54:53;3.63;;;2.25;;
36321;SDS011;23564;48.290;11.460;2022-08-11T09:57:20;7.93;;;2.20;;
36321;SDS011;23564;48.290;11.460;2022-08-11T10:00:05;3.65;;;2.10;;
36321;SDS011;23564;48.290;11.460;2022-08-11T10:02:32;3.92;;;2.10;;
36321;SDS011;23564;48.290;11.460;2022-08-11T10:05:04;5.05;;;1.80;;
36321;SDS011;23564;48.290;11.460;2022-08-11T10:07:50;5.20;;;2.28;;
36321;SDS011;23564;48.290;11.460;2022-08-11T10:10:19;5.03;;;2.10;;
36321;SDS011;23564;48.290;11.460;2022-08-11T10:12:57;2.42;;;1.90;;
36321;SDS011;23564;48.290;11.460;2022-08-11T10:15:28;2.08;;;1.80;;
36321;SDS011;23564;48.290;11.460;2022-08-11T10:20:51;5.10;;;2.15;;
36321;SDS011;23564;48.290;11.460;2022-08-11T10:23:21;3.85;;;2.00;;
36321;SDS011;23564;48.290;11.460;2022-08-11T10:26:06;9.05;;;1.70;;
36321;SDS011;23564;48.290;11.460;2022-08-11T10:28:51;3.83;;;2.03;;
36321;SDS011;23564;48.290;11.460;2022-08-11T10:31:18;11.05;;;2.10;;
36321;SDS011;23564;48.290;11.460;2022-08-11T10:34:05;4.55;;;2.03;;
36321;SDS011;23564;48.290;11.460;2022-08-11T10:36:34;3.03;;;1.60;;
36321;SDS011;23564;48.290;11.460;2022-08-11T10:39:16;7.43;;;1.60;;
36321;SDS011;23564;48.290;11.460;2022-08-11T10:41:44;5.32;;;1.67;;
36321;SDS011;23564;48.290;11.460;2022-08-11T10:44:35;3.33;;;1.60;;
36321;SDS011;23564;48.290;11.460;2022-08-11T10:47:03;3.95;;;1.70;;
36321;SDS011;23564;48.290;11.460;2022-08-11T10:49:48;2.38;;;1.50;;
36321;SDS011;23564;48.290;11.460;2022-08-11T10:52:36;4.60;;;1.70;;
36321;SDS011;23564;48.290;11.460;2022-08-11T10:55:20;4.60;;;1.92;;
36321;SDS011;23564;48.290;11.460;2022-08-11T10:58:06;6.32;;;1.55;;
36321;SDS011;23564;48.290;11.460;2022-08-11T11:00:53;10.05;;;1.92;;
36321;SDS011;23564;48.290;11.460;2022-08-11T11:03:21;7.78;;;1.70;;
36321;SDS011;23564;48.290;11.460;2022-08-11T11:05:49;3.10;;;1.80;;
36321;SDS011;23564;48.290;11.460;2022-08-11T11:08:17;3.05;;;1.58;;
36321;SDS011;23564;48.290;11.460;2022-08-11T11:11:06;2.20;;;1.50;;
36321;SDS011;23564;48.290;11.460;2022-08-11T11:13:33;2.00;;;1.70;;
36321;SDS011;23564;48.290;11.460;2022-08-11T11:16:20;2.80;;;1.50;;
36321;SDS011;23564;48.290;11.460;2022-08-11T11:19:06;4.57;;;1.73;;
36321;SDS011;23564;48.290;11.460;2022-08-11T11:21:33;2.60;;;1.60;;
36321;SDS011;23564;48.290;11.460;2022-08-11T11:26:40;3.58;;;1.65;;
36321;SDS011;23564;48.290;11.460;2022-08-11T11:30:02;5.53;;;1.80;;
36321;SDS011;23564;48.290;11.460;2022-08-11T11:35:39;3.95;;;1.83;;
36321;SDS011;23564;48.290;11.460;2022-08-11T11:38:19;4.43;;;1.48;;
36321;SDS011;23564;48.290;11.460;2022-08-11T11:40:46;2.72;;;1.55;;
36321;SDS011;23564;48.290;11.460;2022-08-11T11:43:31;6.22;;;1.88;;
36321;SDS011;23564;48.290;11.460;2022-08-11T11:45:59;3.42;;;1.80;;
36321;SDS011;23564;48.290;11.460;2022-08-11T11:48:25;2.58;;;1.52;;
36321;SDS011;23564;48.290;11.460;2022-08-11T11:50:52;2.33;;;1.80;;
36321;SDS011;23564;48.290;11.460;2022-08-11T11:53:19;4.55;;;1.45;;
36321;SDS011;23564;48.290;11.460;2022-08-11T11:55:46;2.63;;;1.27;;
36321;SDS011;23564;48.290;11.460;2022-08-11T11:58:12;3.85;;;1.73;;
36321;SDS011;23564;48.290;11.460;2022-08-11T12:00:57;3.60;;;1.40;;
36321;SDS011;23564;48.290;11.460;2022-08-11T12:03:44;3.55;;;1.70;;
36321;SDS011;23564;48.290;11.460;2022-08-11T12:06:12;3.45;;;1.88;;
36321;SDS011;23564;48.290;11.460;2022-08-11T12:08:39;2.85;;;1.63;;
36321;SDS011;23564;48.290;11.460;2022-08-11T12:11:06;5.88;;;2.10;;
36321;SDS011;23564;48.290;11.460;2022-08-11T12:13:53;3.40;;;1.75;;
36321;SDS011;23564;48.290;11.460;2022-08-11T12:16:22;3.38;;;1.63;;
36321;SDS011;23564;48.290;11.460;2022-08-11T12:18:48;5.38;;;1.40;;
36321;SDS011;23564;48.290;11.460;2022-08-11T12:21:16;8.20;;;1.60;;
36321;SDS011;23564;48.290;11.460;2022-08-11T12:23:44;2.88;;;1.50;;
36321;SDS011;23564;48.290;11.460;2022-08-11T12:26:31;2.58;;;1.48;;
36321;SDS011;23564;48.290;11.460;2022-08-11T12:29:23;3.55;;;1.67;;
36321;SDS011;23564;48.290;11.460;2022-08-11T12:31:52;2.97;;;1.52;;
36321;SDS011;23564;48.290;11.460;2022-08-11T12:34:19;3.83;;;1.55;;
36321;SDS011;23564;48.290;11.460;2022-08-11T12:36:57;2.50;;;1.30;;
36321;SDS011;23564;48.290;11.460;2022-08-11T12:39:26;4.45;;;1.52;;
36321;SDS011;23564;48.290;11.460;2022-08-11T12:42:16;3.13;;;1.65;;
36321;SDS011;23564;48.290;11.460;2022-08-11T12:45:02;4.35;;;1.65;;
36321;SDS011;23564;48.290;11.460;2022-08-11T12:47:51;4.25;;;1.80;;
36321;SDS011;23564;48.290;11.460;2022-08-11T12:50:37;4.40;;;1.65;;
36321;SDS011;23564;48.290;11.460;2022-08-11T12:53:23;2.75;;;1.83;;
36321;SDS011;23564;48.290;11.460;2022-08-11T12:55:53;3.60;;;1.33;;
36321;SDS011;23564;48.290;11.460;2022-08-11T12:58:40;5.63;;;1.52;;
36321;SDS011;23564;48.290;11.460;2022-08-11T13:01:07;3.70;;;1.35;;
36321;SDS011;23564;48.290;11.460;2022-08-11T13:03:51;6.30;;;1.58;;
36321;SDS011;23564;48.290;11.460;2022-08-11T13:06:37;3.15;;;1.35;;
36321;SDS011;23564;48.290;11.460;2022-08-11T13:09:05;1.88;;;1.42;;
36321;SDS011;23564;48.290;11.460;2022-08-11T13:11:33;5.47;;;1.27;;
36321;SDS011;23564;48.290;11.460;2022-08-11T13:14:18;2.03;;;1.52;;
36321;SDS011;23564;48.290;11.460;2022-08-11T13:16:45;5.20;;;1.73;;
36321;SDS011;23564;48.290;11.460;2022-08-11T13:19:30;1.77;;;1.60;;
36321;SDS011;23564;48.290;11.460;2022-08-11T13:21:56;3.42;;;1.40;;
36321;SDS011;23564;48.290;11.460;2022-08-11T13:24:22;3.45;;;1.55;;
36321;SDS011;23564;48.290;11.460;2022-08-11T13:26:49;4.40;;;1.48;;
36321;SDS011;23564;48.290;11.460;2022-08-11T13:29:16;5.53;;;1.60;;
36321;SDS011;23564;48.290;11.460;2022-08-11T13:31:44;4.63;;;1.40;;
36321;SDS011;23564;48.290;11.460;2022-08-11T13:34:10;3.42;;;1.40;;
36321;SDS011;23564;48.290;11.460;2022-08-11T13:36:37;2.38;;;1.60;;
36321;SDS011;23564;48.290;11.460;2022-08-11T13:39:03;4.32;;;1.20;;
36321;SDS011;23564;48.290;11.460;2022-08-11T13:41:29;4.63;;;1.55;;
36321;SDS011;23564;48.290;11.460;2022-08-11T13:44:08;1.85;;;1.30;;
36321;SDS011;23564;48.290;11.460;2022-08-11T13:49:02;5.10;;;1.40;;
36321;SDS011;23564;48.290;11.460;2022-08-11T13:51:29;1.98;;;1.35;;
36321;SDS011;23564;48.290;11.460;2022-08-11T13:54:03;2.10;;;1.10;;
36321;SDS011;23564;48.290;11.460;2022-08-11T13:56:44;1.85;;;1.42;;
36321;SDS011;23564;48.290;11.460;2022-08-11T13:59:17;3.42;;;1.48;;
36321;SDS011;23564;48.290;11.460;2022-08-11T14:01:47;2.00;;;1.50;;
36321;SDS011;23564;48.290;11.460;2022-08-11T14:04:22;2.88;;;1.33;;
36321;SDS011;23564;48.290;11.460;2022-08-11T14:07:09;2.97;;;1.42;;
36321;SDS011;23564;48.290;11.460;2022-08-11T14:09:39;3.60;;;1.52;;
36321;SDS011;23564;48.290;11.460;2022-08-11T14:12:13;1.88;;;1.42;;
36321;SDS011;23564;48.290;11.460;2022-08-11T14:15:04;6.13;;;1.58;;
36321;SDS011;23564;48.290;11.460;2022-08-11T14:17:36;4.97;;;2.25;;
36321;SDS011;23564;48.290;11.460;2022-08-11T14:20:05;6.78;;;1.77;;
36321;SDS011;23564;48.290;11.460;2022-08-11T14:22:34;2.78;;;1.65;;
36321;SDS011;23564;48.290;11.460;2022-08-11T14:25:03;6.20;;;1.80;;
36321;SDS011;23564;48.290;11.460;2022-08-11T14:27:29;2.78;;;1.35;;
36321;SDS011;23564;48.290;11.460;2022-08-11T14:29:56;5.90;;;1.60;;
36321;SDS011;23564;48.290;11.460;2022-08-11T14:32:22;6.40;;;1.60;;
36321;SDS011;23564;48.290;11.460;2022-08-11T14:34:49;2.00;;;1.20;;
36321;SDS011;23564;48.290;11.460;2022-08-11T14:37:19;1.55;;;1.10;;
36321;SDS011;23564;48.290;11.460;2022-08-11T14:39:50;2.73;;;1.40;;
36321;SDS011;23564;48.290;11.460;2022-08-11T14:42:18;4.97;;;1.40;;
36321;SDS011;23564;48.290;11.460;2022-08-11T14:47:54;2.15;;;1.40;;
36321;SDS011;23564;48.290;11.460;2022-08-11T14:50:25;1.85;;;1.30;;
36321;SDS011;23564;48.290;11.460;2022-08-11T14:53:00;3.53;;;1.77;;
36321;SDS011;23564;48.290;11.460;2022-08-11T14:55:29;3.30;;;1.67;;
36321;SDS011;23564;48.290;11.460;2022-08-11T14:58:19;10.82;;;1.38;;
36321;SDS011;23564;48.290;11.460;2022-08-11T15:00:49;5.55;;;1.63;;
36321;SDS011;23564;48.290;11.460;2022-08-11T15:03:18;1.58;;;1.20;;
36321;SDS011;23564;48.290;11.460;2022-08-11T15:05:52;3.45;;;1.30;;
36321;SDS011;23564;48.290;11.460;2022-08-11T15:08:20;3.15;;;1.45;;
36321;SDS011;23564;48.290;11.460;2022-08-11T15:11:09;6.72;;;1.23;;
36321;SDS011;23564;48.290;11.460;2022-08-11T15:13:55;5.35;;;1.33;;
36321;SDS011;23564;48.290;11.460;2022-08-11T15:16:27;5.93;;;1.80;;
36321;SDS011;23564;48.290;11.460;2022-08-11T15:19:12;2.72;;;1.13;;
36321;SDS011;23564;48.290;11.460;2022-08-11T15:21:39;3.47;;;1.52;;
36321;SDS011;23564;48.290;11.460;2022-08-11T15:24:23;6.22;;;1.20;;
36321;SDS011;23564;48.290;11.460;2022-08-11T15:26:49;2.22;;;1.20;;
36321;SDS011;23564;48.290;11.460;2022-08-11T15:29:36;5.07;;;1.10;;
36321;SDS011;23564;48.290;11.460;2022-08-11T15:32:23;4.45;;;1.63;;
36321;SDS011;23564;48.290;11.460;2022-08-11T15:35:10;2.45;;;1.50;;
36321;SDS011;23564;48.290;11.460;2022-08-11T15:37:57;2.83;;;1.10;;
36321;SDS011;23564;48.290;11.460;2022-08-11T15:40:30;3.35;;;1.52;;
36321;SDS011;23564;48.290;11.460;2022-08-11T15:43:22;3.13;;;1.50;;
36321;SDS011;23564;48.290;11.460;2022-08-11T15:46:19;3.35;;;1.33;;
36321;SDS011;23564;48.290;11.460;2022-08-11T15:48:55;2.55;;;1.38;;
36321;SDS011;23564;48.290;11.460;2022-08-11T15:54:19;3.03;;;1.33;;
36321;SDS011;23564;48.290;11.460;2022-08-11T15:56:50;4.90;;;1.40;;
36321;SDS011;23564;48.290;11.460;2022-08-11T15:59:19;1.92;;;1.40;;
36321;SDS011;23564;48.290;11.460;2022-08-11T16:02:06;2.30;;;1.27;;
36321;SDS011;23564;48.290;11.460;2022-08-11T16:04:55;3.03;;;1.23;;
36321;SDS011;23564;48.290;11.460;2022-08-11T16:07:23;2.05;;;1.40;;
36321;SDS011;23564;48.290;11.460;2022-08-11T16:09:56;3.47;;;1.60;;
36321;SDS011;23564;48.290;11.460;2022-08-11T16:12:25;2.83;;;1.17;;
36321;SDS011;23564;48.290;11.460;2022-08-11T16:14:56;1.88;;;1.17;;
36321;SDS011;23564;48.290;11.460;2022-08-11T16:17:48;5.65;;;1.40;;
36321;SDS011;23564;48.290;11.460;2022-08-11T16:20:18;3.92;;;1.17;;
36321;SDS011;23564;48.290;11.460;2022-08-11T16:22:46;2.38;;;1.05;;
36321;SDS011;23564;48.290;11.460;2022-08-11T16:25:16;5.03;;;1.50;;
36321;SDS011;23564;48.290;11.460;2022-08-11T16:27:47;3.20;;;1.40;;
36321;SDS011;23564;48.290;11.460;2022-08-11T16:30:15;3.65;;;1.30;;
36321;SDS011;23564;48.290;11.460;2022-08-11T16:32:46;3.40;;;1.30;;
36321;SDS011;23564;48.290;11.460;2022-08-11T16:35:18;2.78;;;1.20;;
36321;SDS011;23564;48.290;11.460;2022-08-11T16:38:05;5.40;;;1.90;;
36321;SDS011;23564;48.290;11.460;2022-08-11T16:40:51;7.45;;;1.38;;
36321;SDS011;23564;48.290;11.460;2022-08-11T16:43:20;5.03;;;1.35;;
36321;SDS011;23564;48.290;11.460;2022-08-11T16:46:06;4.13;;;1.48;;
36321;SDS011;23564;48.290;11.460;2022-08-11T16:48:53;3.83;;;1.25;;
36321;SDS011;23564;48.290;11.460;2022-08-11T16:51:20;5.00;;;1.35;;
36321;SDS011;23564;48.290;11.460;2022-08-11T16:53:47;2.10;;;1.23;;
36321;SDS011;23564;48.290;11.460;2022-08-11T16:56:15;3.83;;;1.33;;
36321;SDS011;23564;48.290;11.460;2022-08-11T16:58:46;3.97;;;0.95;;
36321;SDS011;23564;48.290;11.460;2022-08-11T17:01:35;3.15;;;1.13;;
36321;SDS011;23564;48.290;11.460;2022-08-11T17:04:04;3.97;;;1.17;;
36321;SDS011;23564;48.290;11.460;2022-08-11T17:07:03;3.17;;;1.33;;
36321;SDS011;23564;48.290;11.460;2022-08-11T17:09:59;3.80;;;1.73;;
36321;SDS011;23564;48.290;11.460;2022-08-11T17:12:46;3.00;;;1.30;;
36321;SDS011;23564;48.290;11.460;2022-08-11T17:15:32;0.90;;;0.80;;
36321;SDS011;23564;48.290;11.460;2022-08-11T17:18:20;1.83;;;1.40;;
36321;SDS011;23564;48.290;11.460;2022-08-11T17:21:07;2.80;;;0.93;;
36321;SDS011;23564;48.290;11.460;2022-08-11T17:23:52;4.95;;;1.30;;
36321;SDS011;23564;48.290;11.460;2022-08-11T17:26:41;3.72;;;1.17;;
36321;SDS011;23564;48.290;11.460;2022-08-11T17:29:22;4.13;;;1.10;;
36321;SDS011;23564;48.290;11.460;2022-08-11T17:31:48;3.00;;;1.30;;
36321;SDS011;23564;48.290;11.460;2022-08-11T17:34:34;1.30;;;1.00;;
36321;SDS011;23564;48.290;11.460;2022-08-11T17:37:19;2.20;;;1.10;;
36321;SDS011;23564;48.290;11.460;2022-08-11T17:39:47;1.35;;;1.08;;
36321;SDS011;23564;48.290;11.460;2022-08-11T17:42:14;3.20;;;1.27;;
36321;SDS011;23564;48.290;11.460;2022-08-11T17:44:59;3.67;;;1.00;;
36321;SDS011;23564;48.290;11.460;2022-08-11T17:47:45;2.05;;;1.30;;
36321;SDS011;23564;48.290;11.460;2022-08-11T17:50:30;2.22;;;1.20;;
36321;SDS011;23564;48.290;11.460;2022-08-11T17:52:58;4.05;;;1.30;;
36321;SDS011;23564;48.290;11.460;2022-08-11T17:55:43;5.90;;;1.30;;
36321;SDS011;23564;48.290;11.460;2022-08-11T17:58:28;4.25;;;1.77;;
36321;SDS011;23564;48.290;11.460;2022-08-11T18:01:13;5.25;;;1.60;;
36321;SDS011;23564;48.290;11.460;2022-08-11T18:03:41;2.75;;;1.10;;
36321;SDS011;23564;48.290;11.460;2022-08-11T18:06:08;2.83;;;1.08;;
36321;SDS011;23564;48.290;11.460;2022-08-11T18:08:37;3.08;;;1.35;;
36321;SDS011;23564;48.290;11.460;2022-08-11T18:11:30;2.45;;;1.10;;
36321;SDS011;23564;48.290;11.460;2022-08-11T18:14:16;4.53;;;1.45;;
36321;SDS011;23564;48.290;11.460;2022-08-11T18:17:02;5.15;;;1.50;;
36321;SDS011;23564;48.290;11.460;2022-08-11T18:19:47;4.50;;;1.20;;
36321;SDS011;23564;48.290;11.460;2022-08-11T18:22:36;3.17;;;1.30;;
36321;SDS011;23564;48.290;11.460;2022-08-11T18:25:24;1.30;;;0.98;;
36321;SDS011;23564;48.290;11.460;2022-08-11T18:28:14;1.02;;;0.80;;
36321;SDS011;23564;48.290;11.460;2022-08-11T18:31:06;2.72;;;1.30;;
36321;SDS011;23564;48.290;11.460;2022-08-11T18:33:55;3.50;;;1.70;;
36321;SDS011;23564;48.290;11.460;2022-08-11T18:36:44;2.40;;;1.30;;
36321;SDS011;23564;48.290;11.460;2022-08-11T18:39:34;3.17;;;1.38;;
36321;SDS011;23564;48.290;11.460;2022-08-11T18:42:25;1.67;;;1.17;;
36321;SDS011;23564;48.290;11.460;2022-08-11T18:45:12;1.40;;;1.10;;
36321;SDS011;23564;48.290;11.460;2022-08-11T18:48:02;3.70;;;1.40;;
36321;SDS011;23564;48.290;11.460;2022-08-11T18:50:51;1.70;;;1.38;;
36321;SDS011;23564;48.290;11.460;2022-08-11T18:53:38;1.58;;;1.15;;
36321;SDS011;23564;48.290;11.460;2022-08-11T18:56:26;2.20;;;1.02;;